Time;durP1;ratioP1;P1;durP2;ratioP2;P2;SDS_P1;SDS_P2;PMS_P1;PMS_P2;Temp;Humidity;BMP_temperature;BMP_pressure;BME280_temperature;BME280_humidity;BME280_pressure;Samples;Min_cycle;Max_cycle;Signal;HPM_P1;HPM_P2
2022/11/27 00:00:21;;;;;;;;;;;15.00;55.60;;;;;;5074156;28;19943;-71
2022/11/27 00:02:47;;;;;;;;;;;14.90;55.50;;;;;;5074165;28;20435;-71
2022/11/27 00:05:13;;;;;;;;;;;14.90;55.50;;;;;;5072784;28;19921;-70
2022/11/27 00:07:38;;;;;;;;;;;14.90;55.50;;;;;;5072600;28;19920;-70
2022/11/27 00:10:04;;;;;;;;;;;14.90;55.50;;;;;;5073601;28;19920;-71
2022/11/27 00:12:30;;;;;;;;;;;14.90;55.50;;;;;;5072746;28;20329;-70
2022/11/27 00:14:56;;;;;;;;;;;14.90;55.50;;;;;;5072633;28;20031;-70
2022/11/27 00:17:21;;;;;;;;;;;14.90;55.50;;;;;;5072522;28;19924;-71
2022/11/27 00:19:46;;;;;;;;;;;14.90;55.50;;;;;;5072146;28;19932;-70
2022/11/27 00:22:12;;;;;;;;;;;14.80;55.50;;;;;;5072311;28;19920;-71
2022/11/27 00:24:38;;;;;;;;;;;14.80;55.50;;;;;;5072273;28;20347;-70
2022/11/27 00:27:03;;;;;;;;;;;14.80;55.50;;;;;;5072240;28;20004;-70
2022/11/27 00:29:29;;;;;;;;;;;14.80;55.50;;;;;;5072273;28;20022;-71
2022/11/27 00:31:55;;;;;;;;;;;14.80;55.50;;;;;;5055965;28;19946;-71
2022/11/27 00:34:21;;;;;;;;;;;14.80;55.50;;;;;;5071840;28;19929;-71
2022/11/27 00:36:46;;;;;;;;;;;14.80;55.50;;;;;;5073307;28;20019;-71
2022/11/27 00:39:12;;;;;;;;;;;14.80;55.50;;;;;;5072221;28;19921;-70
2022/11/27 00:41:37;;;;;;;;;;;14.80;55.50;;;;;;5072008;28;19920;-70
2022/11/27 00:44:03;;;;;;;;;;;14.80;55.50;;;;;;5071326;28;19931;-70
2022/11/27 00:46:29;;;;;;;;;;;14.80;55.50;;;;;;5073004;28;19973;-70
2022/11/27 00:48:55;;;;;;;;;;;14.80;55.50;;;;;;5072258;28;19921;-70
2022/11/27 00:51:22;;;;;;;;;;;14.80;55.50;;;;;;5072086;28;20046;-70
2022/11/27 00:53:47;;;;;;;;;;;14.80;55.50;;;;;;5072006;28;19924;-71
2022/11/27 00:56:14;;;;;;;;;;;14.70;55.40;;;;;;5071910;28;19966;-70
2022/11/27 00:58:40;;;;;;;;;;;14.70;55.50;;;;;;5071270;28;20011;-70
2022/11/27 01:01:06;;;;;;;;;;;14.70;55.40;;;;;;5073088;28;20011;-70
2022/11/27 01:03:32;;;;;;;;;;;14.70;55.50;;;;;;5071975;28;19948;-71
2022/11/27 01:06:05;;;;;;;;;;;14.70;55.50;;;;;;5072924;28;19959;-70
2022/11/27 01:08:32;;;;;;;;;;;14.70;55.40;;;;;;5071554;28;20419;-70
2022/11/27 01:10:57;;;;;;;;;;;14.70;55.40;;;;;;5071423;28;19924;-70
2022/11/27 01:13:24;;;;;;;;;;;14.70;55.50;;;;;;5071631;28;19927;-70
2022/11/27 01:16:00;;;;;;;;;;;14.70;55.50;;;;;;5071527;28;20372;-70
2022/11/27 01:18:25;;;;;;;;;;;14.70;55.50;;;;;;5072580;28;19932;-70
2022/11/27 01:20:51;;;;;;;;;;;14.70;55.50;;;;;;5071632;28;20284;-70
2022/11/27 01:23:17;;;;;;;;;;;14.70;55.50;;;;;;5071554;28;19932;-70
2022/11/27 01:25:42;;;;;;;;;;;14.70;55.50;;;;;;5072398;28;19966;-70
2022/11/27 01:28:08;;;;;;;;;;;14.70;55.50;;;;;;5072543;28;19927;-70
2022/11/27 01:30:36;;;;;;;;;;;14.70;55.50;;;;;;5071251;28;19924;-70
2022/11/27 01:33:01;;;;;;;;;;;14.70;55.50;;;;;;5072138;28;20406;-70
2022/11/27 01:35:27;;;;;;;;;;;14.70;55.50;;;;;;5071056;28;19924;-70
2022/11/27 01:37:52;;;;;;;;;;;14.70;55.50;;;;;;5072139;28;19924;-71
2022/11/27 01:40:18;;;;;;;;;;;14.60;55.40;;;;;;5072904;28;19924;-70
2022/11/27 01:42:43;;;;;;;;;;;14.70;55.60;;;;;;5071310;28;20293;-70
2022/11/27 01:45:10;;;;;;;;;;;14.60;55.40;;;;;;5071379;28;19944;-71
2022/11/27 01:47:38;;;;;;;;;;;14.60;55.50;;;;;;5072442;28;19920;-70
2022/11/27 01:50:09;;;;;;;;;;;14.70;55.50;;;;;;5072270;28;19927;-71
2022/11/27 01:52:37;;;;;;;;;;;14.60;55.40;;;;;;5072383;28;19989;-70
2022/11/27 01:55:05;;;;;;;;;;;14.60;55.40;;;;;;5070913;28;19995;-70
2022/11/27 01:57:35;;;;;;;;;;;14.60;55.40;;;;;;5070605;28;19940;-70
2022/11/27 02:00:01;;;;;;;;;;;14.60;55.40;;;;;;5071222;28;20277;-71
2022/11/27 02:02:27;;;;;;;;;;;14.60;55.40;;;;;;5072114;28;20380;-70
2022/11/27 02:04:53;;;;;;;;;;;14.60;55.40;;;;;;5070366;28;19928;-70
2022/11/27 02:07:19;;;;;;;;;;;14.60;55.40;;;;;;5072039;28;19927;-70
2022/11/27 02:09:44;;;;;;;;;;;14.60;55.40;;;;;;5072089;28;20010;-70
2022/11/27 02:12:30;;;;;;;;;;;14.60;55.40;;;;;;5071968;28;20352;-70
2022/11/27 02:17:56;;;;;;;;;;;14.60;55.40;;;;;;5089847;28;20402;-70
2022/11/27 02:31:20;;;;;;;;;;;14.50;55.30;;;;;;5110040;27;19912;-71
2022/11/27 02:33:49;;;;;;;;;;;14.50;55.30;;;;;;5108672;28;19927;-70
2022/11/27 02:36:20;;;;;;;;;;;14.50;55.30;;;;;;5109064;28;20326;-70
2022/11/27 02:38:47;;;;;;;;;;;14.50;55.30;;;;;;5108636;28;19920;-70
2022/11/27 02:41:16;;;;;;;;;;;14.50;55.30;;;;;;5109047;28;19959;-70
2022/11/27 02:43:46;;;;;;;;;;;14.50;55.30;;;;;;5110303;27;20315;-70
2022/11/27 02:46:12;;;;;;;;;;;14.50;55.30;;;;;;5109002;28;19920;-70
2022/11/27 02:48:44;;;;;;;;;;;14.50;55.30;;;;;;5110062;28;20279;-71
2022/11/27 02:51:10;;;;;;;;;;;14.50;55.30;;;;;;5108530;28;19928;-70
2022/11/27 02:53:38;;;;;;;;;;;14.50;55.30;;;;;;5108483;28;20379;-70
2022/11/27 02:56:06;;;;;;;;;;;14.50;55.30;;;;;;5108644;28;20012;-70
2022/11/27 02:58:34;;;;;;;;;;;14.50;55.30;;;;;;5108824;28;19920;-70
2022/11/27 03:00:59;;;;;;;;;;;14.50;55.30;;;;;;5108412;28;19977;-70
2022/11/27 03:03:28;;;;;;;;;;;14.50;55.30;;;;;;5108694;28;19920;-70
2022/11/27 03:05:56;;;;;;;;;;;14.50;55.30;;;;;;5109634;28;19924;-70
2022/11/27 03:08:27;;;;;;;;;;;14.40;55.20;;;;;;5108655;28;19924;-70
2022/11/27 03:10:56;;;;;;;;;;;14.40;55.20;;;;;;5108070;28;20013;-70
2022/11/27 03:13:22;;;;;;;;;;;14.40;55.20;;;;;;5109646;28;19946;-70
2022/11/27 03:15:54;;;;;;;;;;;14.40;55.50;;;;;;5107966;28;20395;-70
2022/11/27 03:18:25;;;;;;;;;;;14.40;55.20;;;;;;5109383;28;20015;-71
2022/11/27 03:20:53;;;;;;;;;;;14.40;55.20;;;;;;5108287;28;19920;-70
2022/11/27 03:23:19;;;;;;;;;;;14.40;55.20;;;;;;5107509;28;19923;-70
2022/11/27 03:25:44;;;;;;;;;;;14.40;55.20;;;;;;5109084;28;20337;-70
2022/11/27 03:28:12;;;;;;;;;;;14.40;55.20;;;;;;5107782;28;19927;-71
2022/11/27 03:30:39;;;;;;;;;;;14.40;55.20;;;;;;5124160;28;19930;-70
2022/11/27 03:33:05;;;;;;;;;;;14.40;55.20;;;;;;5129556;28;19926;-70
2022/11/27 03:35:30;;;;;;;;;;;14.40;55.20;;;;;;5110848;28;19920;-70
2022/11/27 03:37:56;;;;;;;;;;;14.30;55.20;;;;;;5111004;28;19926;-70
2022/11/27 03:40:26;;;;;;;;;;;14.40;55.20;;;;;;5110355;28;19919;-70
2022/11/27 03:45:47;;;;;;;;;;;14.30;55.20;;;;;;5089868;28;19934;-70
2022/11/27 03:48:19;;;;;;;;;;;14.30;55.20;;;;;;5088894;28;20026;-70
2022/11/27 03:53:31;;;;;;;;;;;14.30;55.20;;;;;;5089970;28;19912;-70
2022/11/27 03:56:16;;;;;;;;;;;14.30;55.10;;;;;;5088602;28;19920;-69
2022/11/27 03:58:45;;;;;;;;;;;14.30;55.10;;;;;;5089635;28;20320;-70
2022/11/27 04:01:13;;;;;;;;;;;14.30;55.10;;;;;;5105695;28;19931;-70
2022/11/27 04:03:38;;;;;;;;;;;14.30;55.10;;;;;;5105377;28;20387;-70
2022/11/27 04:06:04;;;;;;;;;;;14.30;55.10;;;;;;5087813;28;19960;-70
2022/11/27 04:08:29;;;;;;;;;;;14.30;55.10;;;;;;5088462;28;19924;-70
2022/11/27 04:10:58;;;;;;;;;;;14.30;55.10;;;;;;5088610;28;20331;-70
2022/11/27 04:13:23;;;;;;;;;;;14.30;55.10;;;;;;5089591;28;19924;-70
2022/11/27 04:15:49;;;;;;;;;;;14.30;55.10;;;;;;5089194;28;19920;-70
2022/11/27 04:18:14;;;;;;;;;;;14.30;55.10;;;;;;5088199;28;19921;-70
2022/11/27 04:20:40;;;;;;;;;;;14.30;55.10;;;;;;5087584;28;19931;-70
2022/11/27 04:23:09;;;;;;;;;;;14.30;55.10;;;;;;5089377;28;20328;-70
2022/11/27 04:25:34;;;;;;;;;;;14.30;55.10;;;;;;5088092;28;19921;-70
2022/11/27 04:28:00;;;;;;;;;;;14.30;55.10;;;;;;5089228;28;19921;-70
2022/11/27 04:30:25;;;;;;;;;;;14.30;55.10;;;;;;5089249;28;19935;-70
2022/11/27 04:32:51;;;;;;;;;;;14.30;55.10;;;;;;5089006;28;20410;-70
2022/11/27 04:35:16;;;;;;;;;;;14.20;55.00;;;;;;5088987;28;20392;-71
2022/11/27 04:37:42;;;;;;;;;;;14.30;55.10;;;;;;5087645;28;20040;-70
2022/11/27 04:40:08;;;;;;;;;;;14.20;55.00;;;;;;5088888;28;19920;-70
2022/11/27 04:42:33;;;;;;;;;;;14.20;55.00;;;;;;5088975;28;19972;-70
2022/11/27 04:44:59;;;;;;;;;;;14.20;55.00;;;;;;5087985;28;19979;-70
2022/11/27 04:47:24;;;;;;;;;;;14.30;55.10;;;;;;5087009;28;20419;-71
2022/11/27 04:49:50;;;;;;;;;;;14.20;55.00;;;;;;5087830;28;19928;-70
2022/11/27 04:52:15;;;;;;;;;;;14.20;55.00;;;;;;5087108;28;19982;-70
2022/11/27 04:54:41;;;;;;;;;;;14.20;55.00;;;;;;5088655;28;19920;-70
2022/11/27 04:57:07;;;;;;;;;;;14.20;55.10;;;;;;5087293;28;20388;-69
2022/11/27 04:59:32;;;;;;;;;;;14.20;55.00;;;;;;5088502;28;19973;-70
2022/11/27 05:01:58;;;;;;;;;;;14.20;55.00;;;;;;5088547;28;19920;-71
2022/11/27 05:04:23;;;;;;;;;;;14.20;55.00;;;;;;5076936;28;19999;-70
2022/11/27 05:06:49;;;;;;;;;;;14.20;55.00;;;;;;5075017;28;19924;-71
2022/11/27 05:09:16;;;;;;;;;;;14.20;55.00;;;;;;5075083;28;19928;-69
2022/11/27 05:11:41;;;;;;;;;;;14.20;55.00;;;;;;5074362;28;19924;-70
2022/11/27 05:14:14;;;;;;;;;;;14.20;55.00;;;;;;5073432;28;19931;-70
2022/11/27 05:16:40;;;;;;;;;;;14.20;55.80;;;;;;5074544;28;19964;-70
2022/11/27 05:19:05;;;;;;;;;;;14.20;55.10;;;;;;5074900;28;19920;-70
2022/11/27 05:21:31;;;;;;;;;;;14.20;55.10;;;;;;5073435;28;20332;-70
2022/11/27 05:23:56;;;;;;;;;;;14.20;55.00;;;;;;5074737;28;19924;-70
2022/11/27 05:26:22;;;;;;;;;;;14.20;55.00;;;;;;5073401;28;20009;-70
2022/11/27 05:28:47;;;;;;;;;;;14.20;55.00;;;;;;5073279;28;19920;-70
2022/11/27 05:31:13;;;;;;;;;;;14.10;55.00;;;;;;5074590;28;19920;-70
2022/11/27 05:33:38;;;;;;;;;;;14.10;55.00;;;;;;5073175;28;20376;-70
2022/11/27 05:36:04;;;;;;;;;;;14.20;55.00;;;;;;5073729;28;19927;-70
2022/11/27 05:38:30;;;;;;;;;;;14.20;55.00;;;;;;5072775;28;19920;-70
2022/11/27 05:40:56;;;;;;;;;;;14.10;55.00;;;;;;5073022;28;19927;-70
2022/11/27 05:43:24;;;;;;;;;;;14.20;55.00;;;;;;5074371;28;19920;-71
2022/11/27 05:45:49;;;;;;;;;;;14.10;55.00;;;;;;5074289;28;19921;-70
2022/11/27 05:48:15;;;;;;;;;;;14.20;55.00;;;;;;5072954;28;19947;-70
2022/11/27 05:50:40;;;;;;;;;;;14.10;55.00;;;;;;5072883;28;19967;-70
2022/11/27 05:53:06;;;;;;;;;;;14.10;55.00;;;;;;5091873;28;19924;-71
2022/11/27 05:55:31;;;;;;;;;;;14.20;55.00;;;;;;5076214;28;19965;-70
2022/11/27 05:57:57;;;;;;;;;;;14.10;54.90;;;;;;5094267;28;19992;-70
2022/11/27 06:00:22;;;;;;;;;;;14.10;55.00;;;;;;5075979;28;20409;-70
2022/11/27 06:02:48;;;;;;;;;;;14.10;54.90;;;;;;5092845;28;19928;-71
2022/11/27 06:05:13;;;;;;;;;;;14.10;55.00;;;;;;5093822;28;19942;-70
2022/11/27 06:07:39;;;;;;;;;;;14.10;55.00;;;;;;5076342;28;19920;-70
2022/11/27 06:10:05;;;;;;;;;;;14.10;55.00;;;;;;5094027;28;19920;-70
2022/11/27 06:12:31;;;;;;;;;;;14.10;55.00;;;;;;5076008;28;20016;-70
2022/11/27 06:14:57;;;;;;;;;;;14.10;55.00;;;;;;5074953;28;19965;-70
2022/11/27 06:17:22;;;;;;;;;;;14.10;55.00;;;;;;5094247;28;20360;-70
2022/11/27 06:19:48;;;;;;;;;;;14.10;54.90;;;;;;5093715;28;19973;-70
2022/11/27 06:22:13;;;;;;;;;;;14.00;54.90;;;;;;5075944;28;19973;-70
2022/11/27 06:24:39;;;;;;;;;;;14.10;54.90;;;;;;5075658;28;19974;-71
2022/11/27 06:27:04;;;;;;;;;;;14.10;54.90;;;;;;5075857;28;19942;-70
2022/11/27 06:29:30;;;;;;;;;;;14.10;54.90;;;;;;5075577;28;20395;-71
2022/11/27 06:31:55;;;;;;;;;;;14.00;54.80;;;;;;5093635;28;19924;-70
2022/11/27 06:34:21;;;;;;;;;;;14.10;55.00;;;;;;5075407;28;20344;-70
2022/11/27 06:36:48;;;;;;;;;;;14.00;54.90;;;;;;5093386;28;19920;-71
2022/11/27 06:39:13;;;;;;;;;;;14.20;55.00;;;;;;5075235;28;20489;-70
2022/11/27 06:41:39;;;;;;;;;;;14.00;54.80;;;;;;5093438;28;19924;-70
2022/11/27 06:44:04;;;;;;;;;;;14.00;54.80;;;;;;5093413;28;19920;-70
2022/11/27 06:46:30;;;;;;;;;;;14.00;54.80;;;;;;5075116;28;19928;-71
2022/11/27 06:48:56;;;;;;;;;;;14.00;54.80;;;;;;5075531;28;19921;-70
2022/11/27 06:51:23;;;;;;;;;;;14.00;54.80;;;;;;5092939;28;19936;-70
2022/11/27 06:53:49;;;;;;;;;;;14.00;54.80;;;;;;5074849;28;19928;-70
2022/11/27 06:56:15;;;;;;;;;;;14.00;54.90;;;;;;5093179;28;20296;-71
2022/11/27 06:58:41;;;;;;;;;;;14.00;54.80;;;;;;5074844;28;19920;-70
2022/11/27 07:01:08;;;;;;;;;;;14.00;54.80;;;;;;5075136;28;19973;-71
2022/11/27 07:03:34;;;;;;;;;;;14.10;54.90;;;;;;5093046;28;20326;-71
2022/11/27 07:06:00;;;;;;;;;;;13.90;54.70;;;;;;5093535;28;19923;-70
2022/11/27 07:08:26;;;;;;;;;;;13.90;54.70;;;;;;5074801;28;19920;-70
2022/11/27 07:10:51;;;;;;;;;;;14.00;54.80;;;;;;5092958;28;19920;-70
2022/11/27 07:13:17;;;;;;;;;;;14.00;54.80;;;;;;5074654;28;19974;-70
2022/11/27 07:15:42;;;;;;;;;;;14.00;54.80;;;;;;5074918;28;20010;-70
2022/11/27 07:18:08;;;;;;;;;;;14.00;54.80;;;;;;5074698;28;19931;-70
2022/11/27 07:20:33;;;;;;;;;;;14.00;54.80;;;;;;5092661;28;19923;-71
2022/11/27 07:22:59;;;;;;;;;;;14.00;54.80;;;;;;5074024;28;19920;-70
2022/11/27 07:25:24;;;;;;;;;;;14.00;54.80;;;;;;5092847;28;19935;-70
2022/11/27 07:27:50;;;;;;;;;;;13.90;54.80;;;;;;5074211;28;20379;-70
2022/11/27 07:30:15;;;;;;;;;;;13.90;54.70;;;;;;5074881;28;19919;-70
2022/11/27 07:32:41;;;;;;;;;;;13.90;54.80;;;;;;5074618;28;19947;-70
2022/11/27 07:35:07;;;;;;;;;;;13.90;54.70;;;;;;5092591;28;19924;-70
2022/11/27 07:37:32;;;;;;;;;;;13.90;54.70;;;;;;5092182;28;19920;-70
2022/11/27 07:39:58;;;;;;;;;;;13.90;54.70;;;;;;5073832;28;19920;-70
2022/11/27 07:42:24;;;;;;;;;;;13.90;54.70;;;;;;5074478;28;19927;-70
2022/11/27 07:44:49;;;;;;;;;;;13.90;54.70;;;;;;5092711;28;20344;-70
2022/11/27 07:47:15;;;;;;;;;;;13.90;54.70;;;;;;5091727;28;20372;-71
2022/11/27 07:49:40;;;;;;;;;;;13.90;54.70;;;;;;5092273;28;19975;-70
2022/11/27 07:52:06;;;;;;;;;;;13.90;54.70;;;;;;5073979;28;20239;-70
2022/11/27 07:54:31;;;;;;;;;;;13.90;54.70;;;;;;5074163;28;19928;-71
2022/11/27 07:56:57;;;;;;;;;;;13.90;54.70;;;;;;5074125;28;19969;-70
2022/11/27 07:59:22;;;;;;;;;;;14.00;54.80;;;;;;5092098;28;20014;-71
2022/11/27 08:01:48;;;;;;;;;;;13.90;54.80;;;;;;5074336;28;20329;-71
2022/11/27 08:04:13;;;;;;;;;;;13.90;54.70;;;;;;5092261;28;19926;-70
2022/11/27 08:06:39;;;;;;;;;;;13.90;54.70;;;;;;5092688;28;20054;-70
2022/11/27 08:09:04;;;;;;;;;;;13.90;54.70;;;;;;5074059;28;19926;-70
2022/11/27 08:11:34;;;;;;;;;;;13.90;54.70;;;;;;5074464;28;20021;-70
2022/11/27 08:14:04;;;;;;;;;;;13.90;54.70;;;;;;5092112;28;20398;-70
2022/11/27 08:16:30;;;;;;;;;;;13.90;54.70;;;;;;5057474;28;19935;-70
2022/11/27 08:18:56;;;;;;;;;;;13.90;54.70;;;;;;5073958;28;19967;-70
2022/11/27 08:21:22;;;;;;;;;;;13.90;54.70;;;;;;5073877;28;20005;-70
2022/11/27 08:23:48;;;;;;;;;;;13.90;54.60;;;;;;5073879;28;20379;-71
2022/11/27 08:26:14;;;;;;;;;;;13.90;54.60;;;;;;5092007;28;19926;-70
2022/11/27 08:28:39;;;;;;;;;;;13.90;54.60;;;;;;5092184;28;19963;-70
2022/11/27 08:31:06;;;;;;;;;;;13.90;54.70;;;;;;5091926;28;19920;-70
2022/11/27 08:33:32;;;;;;;;;;;13.80;54.60;;;;;;5074213;28;19963;-70
2022/11/27 08:35:57;;;;;;;;;;;13.90;54.70;;;;;;5073359;28;19924;-71
2022/11/27 08:38:23;;;;;;;;;;;13.90;54.60;;;;;;5074328;28;19992;-70
2022/11/27 08:40:54;;;;;;;;;;;13.90;54.60;;;;;;5077361;28;19982;-71
2022/11/27 08:43:19;;;;;;;;;;;13.90;54.70;;;;;;5077744;28;19920;-70
2022/11/27 08:45:45;;;;;;;;;;;13.90;54.70;;;;;;5077065;28;20283;-70
2022/11/27 08:48:10;;;;;;;;;;;13.90;54.70;;;;;;5077664;28;19931;-70
2022/11/27 08:50:36;;;;;;;;;;;13.90;54.70;;;;;;5077192;28;20108;-70
2022/11/27 08:53:02;;;;;;;;;;;13.90;54.70;;;;;;5095467;28;19924;-70
2022/11/27 08:55:27;;;;;;;;;;;13.90;54.70;;;;;;5077497;28;19927;-69
2022/11/27 08:57:53;;;;;;;;;;;13.80;54.60;;;;;;5077139;28;19920;-70
2022/11/27 09:00:19;;;;;;;;;;;13.80;54.60;;;;;;5095345;28;19981;-71
2022/11/27 09:02:44;;;;;;;;;;;13.90;54.70;;;;;;5077070;28;19920;-70
2022/11/27 09:05:10;;;;;;;;;;;13.80;54.60;;;;;;5077422;28;19981;-71
2022/11/27 09:07:35;;;;;;;;;;;13.90;54.70;;;;;;5095197;28;20430;-71
2022/11/27 09:10:01;;;;;;;;;;;13.80;54.60;;;;;;5077349;28;19920;-69
2022/11/27 09:12:27;;;;;;;;;;;13.90;54.70;;;;;;5077047;28;19951;-70
2022/11/27 09:14:53;;;;;;;;;;;13.80;54.70;;;;;;5076993;28;19920;-70
2022/11/27 09:17:18;;;;;;;;;;;13.80;54.60;;;;;;5077103;28;19927;-70
2022/11/27 09:19:44;;;;;;;;;;;13.80;54.70;;;;;;5076834;28;19930;-70
2022/11/27 09:22:09;;;;;;;;;;;13.80;54.60;;;;;;5094970;28;19926;-71
2022/11/27 09:24:35;;;;;;;;;;;13.80;54.70;;;;;;5077040;28;19919;-69
2022/11/27 09:27:01;;;;;;;;;;;13.80;54.60;;;;;;5076999;28;19923;-70
2022/11/27 09:29:26;;;;;;;;;;;13.90;54.70;;;;;;5076779;28;19924;-70
2022/11/27 09:31:52;;;;;;;;;;;13.80;54.60;;;;;;5076615;28;19928;-69
2022/11/27 09:34:17;;;;;;;;;;;13.80;54.60;;;;;;5094907;28;19965;-70
2022/11/27 09:36:43;;;;;;;;;;;13.80;54.70;;;;;;5076568;28;20383;-70
2022/11/27 09:39:08;;;;;;;;;;;13.80;54.60;;;;;;5076376;28;20042;-69
2022/11/27 09:41:39;;;;;;;;;;;13.80;54.60;;;;;;5076358;28;19963;-72
2022/11/27 09:44:12;;;;;;;;;;;13.80;54.70;;;;;;5076523;28;19920;-71
2022/11/27 09:46:39;;;;;;;;;;;13.80;54.70;;;;;;5094626;28;20288;-72
2022/11/27 09:49:07;;;;;;;;;;;13.80;54.70;;;;;;5094534;28;19920;-73
2022/11/27 09:51:35;;;;;;;;;;;13.80;54.70;;;;;;5076439;28;19924;-72
2022/11/27 09:54:05;;;;;;;;;;;13.80;54.70;;;;;;5094041;28;19924;-72
2022/11/27 09:56:33;;;;;;;;;;;13.80;54.80;;;;;;5094462;28;20010;-71
2022/11/27 09:58:58;;;;;;;;;;;13.80;54.70;;;;;;5076264;28;20144;-70
2022/11/27 10:01:27;;;;;;;;;;;13.80;54.70;;;;;;5075359;28;20022;-73
2022/11/27 10:03:53;;;;;;;;;;;13.80;54.70;;;;;;5076111;28;20399;-71
2022/11/27 10:06:26;;;;;;;;;;;13.80;54.70;;;;;;5094245;28;20307;-72
2022/11/27 10:11:43;;;;;;;;;;;13.80;54.80;;;;;;5088765;28;19916;-70
2022/11/27 10:14:28;;;;;;;;;;;13.80;54.80;;;;;;5088013;28;19925;-70
2022/11/27 10:17:01;;;;;;;;;;;13.80;54.80;;;;;;5069558;28;19921;-70
2022/11/27 10:19:37;;;;;;;;;;;13.80;54.80;;;;;;5068206;28;19921;-70
2022/11/27 10:24:58;;;;;;;;;;;13.80;54.80;;;;;;5089873;28;20367;-70
2022/11/27 10:27:31;;;;;;;;;;;13.70;54.70;;;;;;5088560;28;20426;-69
2022/11/27 10:29:58;;;;;;;;;;;13.80;54.90;;;;;;5105484;28;19963;-68
2022/11/27 10:32:25;;;;;;;;;;;13.80;54.90;;;;;;5088761;28;20023;-70
2022/11/27 10:34:54;;;;;;;;;;;13.80;54.90;;;;;;5089102;28;20291;-71
2022/11/27 10:37:24;;;;;;;;;;;13.70;54.80;;;;;;5088246;28;19920;-73
2022/11/27 10:39:53;;;;;;;;;;;13.70;54.90;;;;;;5088651;28;19943;-73
2022/11/27 10:42:24;;;;;;;;;;;13.80;54.90;;;;;;5088043;28;19920;-72
2022/11/27 10:44:53;;;;;;;;;;;13.80;54.90;;;;;;5088557;28;19924;-74
2022/11/27 10:47:20;;;;;;;;;;;13.70;54.90;;;;;;5088477;28;20276;-72
2022/11/27 10:49:47;;;;;;;;;;;13.70;54.90;;;;;;5089564;28;20353;-72
2022/11/27 10:52:14;;;;;;;;;;;13.80;55.00;;;;;;5089823;28;20348;-72
2022/11/27 10:54:40;;;;;;;;;;;13.70;54.90;;;;;;5088004;28;19920;-72
2022/11/27 11:02:36;;;;;;;;;;;13.70;55.00;;;;;;5110127;27;19916;-71
2022/11/27 11:10:42;;;;;;;;;;;13.80;55.10;;;;;;5089844;28;19912;-70
2022/11/27 11:13:13;;;;;;;;;;;13.70;55.00;;;;;;5088607;28;20361;-70
2022/11/27 11:15:59;;;;;;;;;;;13.70;55.00;;;;;;5088680;28;19931;-71
2022/11/27 11:21:06;;;;;;;;;;;13.70;55.10;;;;;;5126208;27;1899454;-70
2022/11/27 11:23:34;;;;;;;;;;;13.70;55.10;;;;;;5174687;27;19918;-69
2022/11/27 11:26:05;;;;;;;;;;;13.80;55.20;;;;;;5174334;27;19935;-71
2022/11/27 11:28:33;;;;;;;;;;;13.70;55.10;;;;;;5174600;27;20380;-69
2022/11/27 11:31:01;;;;;;;;;;;13.80;55.10;;;;;;5174295;27;19930;-70
2022/11/27 11:33:27;;;;;;;;;;;13.80;55.20;;;;;;5174230;27;19919;-70
2022/11/27 11:35:54;;;;;;;;;;;13.70;55.10;;;;;;5186233;27;20066;-70
2022/11/27 11:38:23;;;;;;;;;;;13.70;55.10;;;;;;5171508;27;19919;-70
2022/11/27 11:40:58;;;;;;;;;;;13.70;55.20;;;;;;5152916;27;20443;-70
2022/11/27 11:43:25;;;;;;;;;;;13.70;55.20;;;;;;5171710;27;19987;-70
2022/11/27 11:45:51;;;;;;;;;;;13.70;55.20;;;;;;5153449;27;19942;-69
2022/11/27 11:48:22;;;;;;;;;;;13.70;55.20;;;;;;5153155;27;19919;-69
2022/11/27 11:50:53;;;;;;;;;;;13.70;55.20;;;;;;5172043;27;19962;-70
2022/11/27 11:53:35;;;;;;;;;;;13.70;55.20;;;;;;5171684;27;19919;-71
2022/11/27 11:58:44;;;;;;;;;;;13.70;55.20;;;;;;5127800;27;1855867;-70
2022/11/27 12:01:30;;;;;;;;;;;13.70;55.20;;;;;;5174634;27;19918;-70
2022/11/27 12:04:15;;;;;;;;;;;13.70;55.30;;;;;;5174014;27;19918;-69
2022/11/27 12:09:36;;;;;;;;;;;13.70;55.20;;;;;;5131995;27;1854733;-70
2022/11/27 12:12:21;;;;;;;;;;;13.80;55.30;;;;;;5174414;27;19919;-69
2022/11/27 12:14:51;;;;;;;;;;;13.70;55.30;;;;;;5174375;27;19919;-69
2022/11/27 12:28:22;;;;;;;;;;;13.70;55.40;;;;;;5089831;28;19920;-70
2022/11/27 12:30:55;;;;;;;;;;;13.70;55.40;;;;;;5088445;28;19943;-69
2022/11/27 12:36:15;;;;;;;;;;;13.70;55.50;;;;;;5109187;27;19912;-70
2022/11/27 12:43:59;;;;;;;;;;;13.70;55.50;;;;;;5131894;27;1851746;-70
2022/11/27 12:46:44;;;;;;;;;;;13.70;55.50;;;;;;5174381;27;19941;-71
2022/11/27 12:51:53;;;;;;;;;;;13.70;55.50;;;;;;5110294;27;20301;-69
2022/11/27 12:54:21;;;;;;;;;;;13.70;55.50;;;;;;5108914;28;19920;-68
2022/11/27 12:56:50;;;;;;;;;;;13.70;55.50;;;;;;5109071;28;19973;-70
2022/11/27 12:59:25;;;;;;;;;;;13.70;55.50;;;;;;5108750;28;20039;-70
2022/11/27 13:01:54;;;;;;;;;;;13.70;55.50;;;;;;5108671;28;20236;-70
2022/11/27 13:04:25;;;;;;;;;;;13.70;55.60;;;;;;5108884;28;19973;-70
2022/11/27 13:06:57;;;;;;;;;;;13.70;55.60;;;;;;5109003;28;19989;-70
2022/11/27 13:09:27;;;;;;;;;;;13.70;55.60;;;;;;5110245;28;20291;-69
2022/11/27 13:11:54;;;;;;;;;;;13.70;55.60;;;;;;5110005;28;20284;-70
2022/11/27 13:14:21;;;;;;;;;;;13.60;55.50;;;;;;5142740;27;20397;-70
2022/11/27 13:16:48;;;;;;;;;;;13.60;55.60;;;;;;5109912;28;19920;-70
2022/11/27 13:21:55;;;;;;;;;;;13.70;55.60;;;;;;5131362;27;1863073;-70
2022/11/27 13:24:22;;;;;;;;;;;13.70;55.70;;;;;;5174188;27;19970;-69
2022/11/27 13:26:52;;;;;;;;;;;13.70;55.60;;;;;;5174714;27;20040;-70
2022/11/27 13:29:26;;;;;;;;;;;13.60;55.60;;;;;;5174304;27;20013;-70
2022/11/27 13:31:54;;;;;;;;;;;13.70;55.70;;;;;;5174649;27;19918;-70
2022/11/27 13:34:21;;;;;;;;;;;13.70;55.70;;;;;;5174503;27;19974;-69
2022/11/27 13:36:53;;;;;;;;;;;13.70;55.70;;;;;;5174515;27;20286;-70
2022/11/27 13:39:21;;;;;;;;;;;13.60;55.70;;;;;;5161404;27;19919;-69
2022/11/27 13:41:47;;;;;;;;;;;13.70;55.70;;;;;;5152807;27;19923;-70
2022/11/27 13:44:22;;;;;;;;;;;13.60;55.70;;;;;;5153090;27;20180;-70
2022/11/27 13:46:52;;;;;;;;;;;13.60;55.70;;;;;;5171768;27;19923;-70
2022/11/27 13:49:35;;;;;;;;;;;13.60;55.80;;;;;;5153151;27;19930;-69
2022/11/27 13:52:05;;;;;;;;;;;13.60;55.70;;;;;;5153372;27;20284;-71
2022/11/27 13:54:31;;;;;;;;;;;13.60;55.80;;;;;;5152959;27;19945;-70
2022/11/27 13:57:07;;;;;;;;;;;13.60;55.80;;;;;;5153012;27;20103;-69
2022/11/27 13:59:33;;;;;;;;;;;13.60;55.80;;;;;;5152876;27;19971;-70
2022/11/27 14:01:59;;;;;;;;;;;13.60;55.90;;;;;;5171574;27;20335;-70
2022/11/27 14:04:26;;;;;;;;;;;13.60;55.80;;;;;;5152728;27;19923;-69
2022/11/27 14:06:54;;;;;;;;;;;13.60;55.80;;;;;;5171361;27;20010;-70
2022/11/27 14:09:30;;;;;;;;;;;13.60;55.90;;;;;;5171486;27;19963;-70
2022/11/27 14:11:55;;;;;;;;;;;13.60;55.90;;;;;;5171288;27;19925;-70
2022/11/27 14:14:22;;;;;;;;;;;13.60;55.90;;;;;;5170515;27;20013;-70
2022/11/27 14:16:53;;;;;;;;;;;13.60;55.80;;;;;;5152295;27;19919;-71
2022/11/27 14:19:27;;;;;;;;;;;13.60;55.90;;;;;;5152678;27;19919;-70
2022/11/27 14:21:53;;;;;;;;;;;13.60;55.90;;;;;;5170848;27;20363;-70
2022/11/27 14:24:22;;;;;;;;;;;13.60;55.90;;;;;;5152558;27;19963;-70
2022/11/27 14:26:47;;;;;;;;;;;13.60;56.00;;;;;;5152568;27;19919;-70
2022/11/27 14:29:14;;;;;;;;;;;13.60;56.00;;;;;;5170894;27;19942;-69
2022/11/27 14:31:39;;;;;;;;;;;13.60;56.00;;;;;;5166259;27;20289;-71
2022/11/27 14:34:05;;;;;;;;;;;13.50;55.90;;;;;;5138140;27;19919;-69
2022/11/27 14:36:34;;;;;;;;;;;13.60;56.00;;;;;;5156458;27;19966;-69
2022/11/27 14:39:00;;;;;;;;;;;13.60;56.00;;;;;;5156755;27;19942;-69
2022/11/27 14:41:27;;;;;;;;;;;13.50;56.00;;;;;;5156526;27;19930;-71
2022/11/27 14:44:12;;;;;;;;;;;13.60;56.10;;;;;;5138339;27;19926;-71
2022/11/27 14:46:38;;;;;;;;;;;13.60;56.00;;;;;;5156425;27;19926;-71
2022/11/27 14:49:03;;;;;;;;;;;13.60;56.10;;;;;;5138226;27;19919;-71
2022/11/27 14:51:31;;;;;;;;;;;13.60;56.10;;;;;;5156639;27;19922;-72
2022/11/27 14:53:58;;;;;;;;;;;13.60;56.10;;;;;;5138297;27;19919;-70
2022/11/27 14:56:28;;;;;;;;;;;13.60;56.10;;;;;;5137936;27;19923;-72
2022/11/27 14:58:54;;;;;;;;;;;13.50;56.10;;;;;;5156533;27;19919;-73
2022/11/27 15:01:22;;;;;;;;;;;13.60;56.10;;;;;;5156418;27;19923;-71
2022/11/27 15:04:04;;;;;;;;;;;13.50;56.10;;;;;;5156186;27;19919;-72
2022/11/27 15:06:33;;;;;;;;;;;13.50;56.10;;;;;;5138332;27;19926;-72
2022/11/27 15:08:59;;;;;;;;;;;13.50;56.20;;;;;;5156720;27;19926;-72
2022/11/27 15:11:25;;;;;;;;;;;13.60;56.20;;;;;;5155659;27;19919;-72
2022/11/27 15:13:53;;;;;;;;;;;13.60;56.20;;;;;;5137336;27;19919;-71
2022/11/27 15:16:21;;;;;;;;;;;13.50;56.20;;;;;;5137853;27;19923;-72
2022/11/27 15:18:50;;;;;;;;;;;13.50;56.20;;;;;;5137796;27;19920;-71
2022/11/27 15:21:18;;;;;;;;;;;13.50;56.20;;;;;;5133711;27;19968;-72
2022/11/27 15:23:44;;;;;;;;;;;13.50;56.20;;;;;;5134058;27;19920;-71
2022/11/27 15:26:11;;;;;;;;;;;13.50;56.20;;;;;;5135449;27;19919;-71